Time;durP1;ratioP1;P1;durP2;ratioP2;P2;SDS_P1;SDS_P2;PMS_P1;PMS_P2;Temp;Humidity;BMP_temperature;BMP_pressure;BME280_temperature;BME280_humidity;BME280_pressure;Samples;Min_cycle;Max_cycle;Signal;HPM_P1;HPM_P2
2023/03/21 00:01:44;;;;;;;22.58;12.43;;;8.80;99.90;;;;;;5110763;28;20055;-63
2023/03/21 00:04:12;;;;;;;19.75;12.18;;;8.80;99.90;;;;;;5112439;28;20403;-63
2023/03/21 00:06:39;;;;;;;19.52;12.43;;;8.80;99.90;;;;;;5110786;28;20051;-63
2023/03/21 00:09:06;;;;;;;21.23;11.93;;;8.90;99.90;;;;;;5111522;28;20098;-63
2023/03/21 00:11:33;;;;;;;17.67;11.02;;;8.90;99.90;;;;;;5111239;28;20100;-63
2023/03/21 00:14:01;;;;;;;25.70;13.20;;;8.80;99.90;;;;;;5113631;28;20471;-63
2023/03/21 00:16:30;;;;;;;22.65;11.70;;;8.90;99.90;;;;;;5115689;28;20079;-63
2023/03/21 00:18:57;;;;;;;19.02;10.65;;;8.80;99.90;;;;;;5113233;28;20497;-63
2023/03/21 00:21:31;;;;;;;17.27;11.55;;;8.80;99.90;;;;;;5114583;28;20104;-63
2023/03/21 00:23:58;;;;;;;17.58;11.13;;;8.80;99.90;;;;;;5115575;28;20043;-63
2023/03/21 00:26:25;;;;;;;21.33;11.15;;;8.80;99.90;;;;;;5114021;28;20048;-64
2023/03/21 00:28:52;;;;;;;16.83;9.90;;;8.90;99.90;;;;;;5116144;28;20441;-63
2023/03/21 00:31:19;;;;;;;17.80;10.55;;;8.90;99.90;;;;;;5114299;28;20047;-62
2023/03/21 00:33:47;;;;;;;16.05;10.57;;;8.90;99.90;;;;;;5116015;28;20047;-63
2023/03/21 00:36:14;;;;;;;17.30;11.02;;;8.90;99.90;;;;;;5115702;28;20048;-64
2023/03/21 00:38:43;;;;;;;20.10;11.60;;;8.80;99.90;;;;;;5113914;28;20043;-62
2023/03/21 00:41:13;;;;;;;21.27;12.20;;;8.90;99.90;;;;;;5115919;28;20043;-63
2023/03/21 00:43:40;;;;;;;23.55;12.65;;;8.90;99.90;;;;;;5113828;28;20122;-62
2023/03/21 00:46:07;;;;;;;33.75;15.18;;;8.90;99.90;;;;;;5114855;28;20043;-63
2023/03/21 00:48:34;;;;;;;28.02;13.27;;;8.90;99.90;;;;;;5115645;28;20048;-63
2023/03/21 00:51:01;;;;;;;45.47;16.23;;;8.90;99.90;;;;;;5114838;28;20423;-63
2023/03/21 00:53:30;;;;;;;43.33;17.85;;;8.90;99.90;;;;;;5115399;28;20403;-63
2023/03/21 00:55:58;;;;;;;52.75;20.73;;;8.90;99.90;;;;;;5114241;28;20055;-64
2023/03/21 00:58:25;;;;;;;56.97;20.25;;;8.90;99.90;;;;;;5115127;28;20048;-63
2023/03/21 01:00:52;;;;;;;65.35;21.52;;;8.90;99.90;;;;;;5115160;28;20406;-63
2023/03/21 01:03:19;;;;;;;56.95;22.42;;;8.90;99.90;;;;;;5114249;28;20039;-63
2023/03/21 01:06:04;;;;;;;69.05;21.45;;;8.90;99.90;;;;;;5114300;28;20134;-63
2023/03/21 01:08:32;;;;;;;62.47;21.27;;;8.90;99.90;;;;;;5115189;28;20047;-63
2023/03/21 01:11:05;;;;;;;64.30;21.70;;;8.80;99.90;;;;;;5114972;28;20036;-63
2023/03/21 01:13:33;;;;;;;72.32;22.85;;;8.90;99.90;;;;;;5112453;28;20071;-63
2023/03/21 01:16:00;;;;;;;73.30;22.55;;;8.90;99.90;;;;;;5114682;28;20055;-63
2023/03/21 01:18:29;;;;;;;86.15;25.73;;;8.80;99.90;;;;;;5114956;28;20043;-63
2023/03/21 01:20:59;;;;;;;100.70;29.15;;;8.90;99.90;;;;;;5114437;28;20047;-63
2023/03/21 01:23:28;;;;;;;64.82;22.45;;;8.90;99.90;;;;;;5113951;28;20055;-63
2023/03/21 01:25:56;;;;;;;77.60;24.52;;;8.80;99.90;;;;;;5110270;28;20047;-63
2023/03/21 01:28:26;;;;;;;83.35;25.48;;;8.90;99.90;;;;;;5114130;28;20051;-63
2023/03/21 01:30:53;;;;;;;65.60;22.35;;;8.90;99.90;;;;;;5113356;28;20048;-63
2023/03/21 01:33:21;;;;;;;64.95;24.23;;;8.90;99.90;;;;;;5113031;28;20065;-63
2023/03/21 01:35:48;;;;;;;61.00;23.35;;;8.80;99.90;;;;;;5114631;28;20044;-64
2023/03/21 01:38:15;;;;;;;62.60;21.98;;;8.90;99.90;;;;;;5113628;28;20043;-63
2023/03/21 01:40:45;;;;;;;58.40;21.23;;;8.80;99.90;;;;;;5113926;28;20402;-63
2023/03/21 01:43:21;;;;;;;41.17;18.85;;;8.90;99.90;;;;;;5114704;28;20461;-62
2023/03/21 01:46:27;;;;;;;40.08;17.08;;;8.90;99.90;;;;;;5112948;28;20047;-62
2023/03/21 01:48:58;;;;;;;40.53;16.27;;;8.90;99.90;;;;;;5112570;28;20567;-63
2023/03/21 01:51:27;;;;;;;40.00;18.40;;;8.90;99.90;;;;;;5113080;28;20456;-63
2023/03/21 01:53:55;;;;;;;32.63;15.63;;;8.90;99.90;;;;;;5114113;28;20122;-63
2023/03/21 01:56:26;;;;;;;37.25;16.73;;;8.90;99.90;;;;;;5112154;28;20047;-63
2023/03/21 01:58:56;;;;;;;38.95;17.90;;;8.90;99.90;;;;;;5112105;28;20054;-63
2023/03/21 02:01:25;;;;;;;40.58;17.83;;;8.90;99.90;;;;;;5112353;28;20064;-63
2023/03/21 02:03:52;;;;;;;46.72;19.13;;;8.90;99.90;;;;;;5114090;28;20050;-63
2023/03/21 02:06:29;;;;;;;43.72;20.23;;;8.90;99.90;;;;;;5112359;28;20079;-63
2023/03/21 02:09:03;;;;;;;39.75;19.13;;;8.90;99.90;;;;;;5111668;28;20126;-63
2023/03/21 02:11:31;;;;;;;46.88;19.42;;;8.90;99.90;;;;;;5111758;28;20540;-63
2023/03/21 02:13:59;;;;;;;34.88;17.83;;;8.90;99.90;;;;;;5112625;28;20039;-63
2023/03/21 02:16:37;;;;;;;35.38;16.88;;;8.90;99.90;;;;;;5112005;28;20085;-63
2023/03/21 02:19:27;;;;;;;37.33;17.55;;;8.90;99.90;;;;;;5112560;28;20483;-62
2023/03/21 02:22:17;;;;;;;38.70;15.98;;;8.90;99.90;;;;;;5113723;28;20047;-63
2023/03/21 02:25:05;;;;;;;33.95;17.23;;;8.90;99.90;;;;;;5111042;28;20043;-62
2023/03/21 02:27:38;;;;;;;35.17;18.23;;;8.90;99.90;;;;;;5113499;28;20063;-63
2023/03/21 02:30:30;;;;;;;36.38;16.45;;;9.00;99.90;;;;;;5111784;28;20051;-63
2023/03/21 02:33:24;;;;;;;35.90;16.92;;;9.00;99.90;;;;;;5112436;28;20119;-63
2023/03/21 02:36:10;;;;;;;28.10;14.85;;;9.00;99.90;;;;;;5110739;28;20051;-63
2023/03/21 02:38:43;;;;;;;29.38;15.70;;;9.00;99.90;;;;;;5112900;28;20556;-62
2023/03/21 02:41:16;;;;;;;25.63;15.50;;;9.00;99.90;;;;;;5113595;28;20381;-62
2023/03/21 02:43:47;;;;;;;25.98;15.88;;;9.00;99.90;;;;;;5111608;28;20055;-62
2023/03/21 02:46:17;;;;;;;24.88;15.15;;;9.00;99.90;;;;;;5111899;28;20058;-62
2023/03/21 02:48:51;;;;;;;26.25;14.43;;;9.00;99.90;;;;;;5113080;28;20085;-62
2023/03/21 02:51:22;;;;;;;28.48;15.43;;;9.00;99.90;;;;;;5111418;28;20055;-63
2023/03/21 02:53:56;;;;;;;23.52;14.15;;;9.00;99.90;;;;;;5113154;28;20047;-63
2023/03/21 02:56:26;;;;;;;28.10;14.75;;;9.00;99.90;;;;;;5111911;28;20047;-63
2023/03/21 02:58:54;;;;;;;24.40;14.30;;;9.00;99.90;;;;;;5109197;28;20057;-62
2023/03/21 03:01:20;;;;;;;23.70;14.13;;;9.00;99.90;;;;;;5111664;28;20051;-63
2023/03/21 03:03:47;;;;;;;23.15;15.13;;;9.00;99.90;;;;;;5113094;28;20043;-63
2023/03/21 03:06:18;;;;;;;22.20;13.88;;;9.10;99.90;;;;;;5111814;28;20047;-63
2023/03/21 03:09:07;;;;;;;23.42;13.80;;;9.00;99.90;;;;;;5111880;28;20051;-63
2023/03/21 03:11:36;;;;;;;20.90;12.93;;;9.00;99.90;;;;;;5111230;28;20059;-63
2023/03/21 03:14:36;;;;;;;21.70;13.05;;;9.10;99.90;;;;;;5111416;28;20491;-63
2023/03/21 03:17:16;;;;;;;20.90;13.40;;;9.10;99.90;;;;;;5112589;28;20455;-63
2023/03/21 03:19:52;;;;;;;19.52;12.23;;;9.10;99.90;;;;;;5112243;28;20055;-63
2023/03/21 03:22:25;;;;;;;21.02;13.40;;;9.10;99.90;;;;;;5112633;28;20047;-63
2023/03/21 03:24:58;;;;;;;18.63;12.07;;;9.10;99.90;;;;;;5110457;28;20063;-62
2023/03/21 03:27:29;;;;;;;19.73;13.38;;;9.10;99.90;;;;;;5111933;28;20514;-63
2023/03/21 03:30:00;;;;;;;20.50;13.38;;;9.10;99.90;;;;;;5110694;28;20086;-61
2023/03/21 03:32:31;;;;;;;21.27;13.73;;;9.10;99.90;;;;;;5112563;28;20058;-62
2023/03/21 03:34:59;;;;;;;20.20;12.65;;;9.10;99.90;;;;;;5110840;28;20479;-62
2023/03/21 03:37:29;;;;;;;19.50;12.93;;;9.10;99.90;;;;;;5110943;28;20534;-61
2023/03/21 03:40:04;;;;;;;19.52;13.05;;;9.10;99.90;;;;;;5110548;28;20475;-62
2023/03/21 03:42:36;;;;;;;21.27;13.07;;;9.10;99.90;;;;;;5112569;28;20403;-62
2023/03/21 03:45:03;;;;;;;23.33;14.40;;;9.10;99.90;;;;;;5111367;28;20056;-63
2023/03/21 03:47:37;;;;;;;23.67;13.82;;;9.10;99.90;;;;;;5110538;28;20080;-63
2023/03/21 03:50:12;;;;;;;19.45;13.00;;;9.10;99.90;;;;;;5116064;28;20054;-62
2023/03/21 03:52:44;;;;;;;23.48;13.57;;;9.10;99.90;;;;;;5116596;28;20513;-63
2023/03/21 03:55:16;;;;;;;24.23;15.85;;;9.10;99.90;;;;;;5116069;28;20040;-62
2023/03/21 03:57:44;;;;;;;24.77;14.70;;;9.10;99.90;;;;;;5116415;28;20457;-62
2023/03/21 04:00:13;;;;;;;26.85;14.55;;;9.10;99.90;;;;;;5115226;28;20051;-62
2023/03/21 04:02:41;;;;;;;20.52;13.45;;;9.10;99.90;;;;;;5115765;28;20046;-63
2023/03/21 04:05:08;;;;;;;24.50;14.40;;;9.10;99.90;;;;;;5116430;28;20092;-63
2023/03/21 04:07:36;;;;;;;25.17;13.90;;;9.10;99.90;;;;;;5116432;28;20047;-62
2023/03/21 04:10:03;;;;;;;22.17;13.65;;;9.10;99.90;;;;;;5115600;28;20051;-62
2023/03/21 04:12:32;;;;;;;23.48;12.68;;;9.10;99.90;;;;;;5116249;28;20535;-64
2023/03/21 04:14:59;;;;;;;25.27;13.57;;;9.10;99.90;;;;;;5114392;28;20044;-62
2023/03/21 04:17:26;;;;;;;23.67;13.90;;;9.10;99.90;;;;;;5114727;28;20063;-62
2023/03/21 04:19:52;;;;;;;27.90;14.27;;;9.10;99.90;;;;;;5116043;28;20043;-62
2023/03/21 04:22:19;;;;;;;23.00;13.45;;;9.10;99.90;;;;;;5115464;28;20051;-63
2023/03/21 04:24:46;;;;;;;20.90;12.57;;;9.10;99.90;;;;;;5116164;28;20058;-63
2023/03/21 04:27:14;;;;;;;20.50;12.43;;;9.10;99.90;;;;;;5114700;28;20055;-63
2023/03/21 04:29:42;;;;;;;20.63;12.10;;;9.10;99.90;;;;;;5114469;28;20056;-63
2023/03/21 04:32:15;;;;;;;22.38;13.35;;;9.10;99.90;;;;;;5114599;28;20055;-62
2023/03/21 04:34:42;;;;;;;23.52;12.30;;;9.10;99.90;;;;;;5114645;28;20063;-62
2023/03/21 04:37:10;;;;;;;17.88;11.32;;;9.10;99.90;;;;;;5113793;28;20388;-62
2023/03/21 04:39:38;;;;;;;16.52;10.52;;;9.10;99.90;;;;;;5114409;28;20125;-62
2023/03/21 04:42:05;;;;;;;20.00;11.07;;;9.10;99.90;;;;;;5114633;28;20082;-62
2023/03/21 04:44:32;;;;;;;17.38;10.60;;;9.10;99.90;;;;;;5115052;28;20040;-62
2023/03/21 04:47:00;;;;;;;17.67;11.30;;;9.20;99.90;;;;;;5104808;28;20100;-62
2023/03/21 04:49:27;;;;;;;17.95;10.43;;;9.10;99.90;;;;;;5112676;28;20047;-62
2023/03/21 04:51:54;;;;;;;19.42;10.20;;;9.10;99.90;;;;;;5111275;28;20051;-62
2023/03/21 04:54:21;;;;;;;21.27;10.95;;;9.10;99.90;;;;;;5113162;28;20751;-63
2023/03/21 04:56:48;;;;;;;19.90;11.07;;;9.10;99.90;;;;;;5111666;28;20058;-62
2023/03/21 04:59:16;;;;;;;19.70;10.55;;;9.10;99.90;;;;;;5110944;28;20047;-62
2023/03/21 05:01:43;;;;;;;18.77;10.45;;;9.10;99.90;;;;;;5114314;28;20527;-62
2023/03/21 05:04:13;;;;;;;19.33;11.57;;;9.10;99.90;;;;;;5111589;28;20048;-63
2023/03/21 05:06:41;;;;;;;19.35;11.18;;;9.10;99.90;;;;;;5111358;28;20051;-63
2023/03/21 05:09:09;;;;;;;21.27;11.05;;;9.10;99.90;;;;;;5109643;28;20044;-63
2023/03/21 05:11:38;;;;;;;21.63;11.60;;;9.10;99.90;;;;;;5111845;28;20055;-63
2023/03/21 05:14:05;;;;;;;19.80;11.63;;;9.10;99.90;;;;;;5110187;28;20052;-63
2023/03/21 05:16:33;;;;;;;20.67;10.68;;;9.10;99.90;;;;;;5112426;28;20051;-63
2023/03/21 05:19:03;;;;;;;19.63;11.68;;;9.10;99.90;;;;;;5109776;28;20101;-63
2023/03/21 05:21:40;;;;;;;20.20;11.63;;;9.10;99.90;;;;;;5113881;28;20055;-63
2023/03/21 05:24:11;;;;;;;21.25;11.48;;;9.10;99.90;;;;;;5110055;28;20043;-62
2023/03/21 05:26:38;;;;;;;20.60;12.30;;;9.10;99.90;;;;;;5111651;28;20046;-63
2023/03/21 05:29:05;;;;;;;22.75;12.75;;;9.20;99.90;;;;;;5111882;28;20054;-62
2023/03/21 05:31:32;;;;;;;21.75;13.23;;;9.10;99.90;;;;;;5113824;28;20067;-62
2023/03/21 05:34:00;;;;;;;20.92;11.70;;;9.10;99.90;;;;;;5110283;28;20506;-64
2023/03/21 05:36:27;;;;;;;17.30;10.63;;;9.10;99.90;;;;;;5109397;28;20059;-63
2023/03/21 05:38:55;;;;;;;22.98;12.70;;;9.10;99.90;;;;;;5111759;28;20051;-61
2023/03/21 05:41:22;;;;;;;21.25;12.55;;;9.10;99.90;;;;;;5112350;27;20048;-62
2023/03/21 05:43:49;;;;;;;23.15;12.57;;;9.20;99.90;;;;;;5113021;28;20089;-62
2023/03/21 05:46:16;;;;;;;22.92;12.60;;;9.10;99.90;;;;;;5110139;28;20044;-62
2023/03/21 05:48:42;;;;;;;24.35;13.18;;;9.10;99.90;;;;;;5109929;28;20060;-63
2023/03/21 05:51:10;;;;;;;23.02;13.25;;;9.10;99.90;;;;;;5109035;28;20051;-63
2023/03/21 05:53:36;;;;;;;23.38;12.75;;;9.10;99.90;;;;;;5110162;28;20047;-63
2023/03/21 05:56:06;;;;;;;20.92;12.65;;;9.10;99.90;;;;;;5110411;28;20044;-63
2023/03/21 05:58:33;;;;;;;22.73;12.20;;;9.10;99.90;;;;;;5140799;27;20055;-63
2023/03/21 06:00:59;;;;;;;22.95;14.48;;;9.10;99.90;;;;;;5111163;28;20051;-63
2023/03/21 06:03:26;;;;;;;23.60;12.75;;;9.10;99.90;;;;;;5111602;28;20394;-61
2023/03/21 06:05:53;;;;;;;20.08;12.07;;;9.10;99.90;;;;;;5109096;28;20058;-62
2023/03/21 06:08:20;;;;;;;20.70;11.25;;;9.10;99.90;;;;;;5112167;28;20062;-62
2023/03/21 06:10:47;;;;;;;18.98;10.85;;;9.20;99.90;;;;;;5110236;28;20055;-62
2023/03/21 06:13:15;;;;;;;18.85;11.65;;;9.10;99.90;;;;;;5111433;28;20051;-62
2023/03/21 06:15:42;;;;;;;18.50;11.15;;;9.20;99.90;;;;;;5109535;28;20503;-62
2023/03/21 06:18:09;;;;;;;14.57;10.15;;;9.20;99.90;;;;;;5111912;28;20052;-62
2023/03/21 06:20:36;;;;;;;16.40;9.70;;;9.20;99.90;;;;;;5109172;28;20051;-62
2023/03/21 06:23:03;;;;;;;14.98;9.60;;;9.20;99.90;;;;;;5110917;28;20054;-62
2023/03/21 06:25:30;;;;;;;16.15;9.63;;;9.20;99.90;;;;;;5107128;28;20411;-62
2023/03/21 06:27:57;;;;;;;15.10;9.23;;;9.20;99.90;;;;;;5110720;28;20050;-62
2023/03/21 06:30:25;;;;;;;15.82;9.80;;;9.20;99.90;;;;;;5110137;28;20044;-62
2023/03/21 06:32:53;;;;;;;16.02;9.15;;;9.20;99.90;;;;;;5111223;28;20542;-62
2023/03/21 06:35:20;;;;;;;14.68;9.38;;;9.20;99.90;;;;;;5113609;28;20109;-62
2023/03/21 06:37:48;;;;;;;15.75;9.88;;;9.30;99.90;;;;;;5110891;28;20417;-63
2023/03/21 06:40:15;;;;;;;16.92;10.32;;;9.30;99.90;;;;;;5112301;28;20500;-62
2023/03/21 06:42:42;;;;;;;20.60;10.65;;;9.30;99.90;;;;;;5112758;28;20039;-63
2023/03/21 06:45:09;;;;;;;18.85;10.43;;;9.30;99.90;;;;;;5111784;28;20043;-62
2023/03/21 06:47:38;;;;;;;15.18;10.75;;;9.30;99.90;;;;;;5111842;28;20130;-62
2023/03/21 06:50:06;;;;;;;18.70;12.15;;;9.30;99.90;;;;;;5110499;28;20043;-62
2023/03/21 06:52:33;;;;;;;19.48;11.70;;;9.30;99.90;;;;;;5111184;28;20488;-62
2023/03/21 06:55:00;;;;;;;20.10;12.32;;;9.30;99.90;;;;;;5111934;28;20130;-62
2023/03/21 06:57:27;;;;;;;16.40;11.50;;;9.30;99.90;;;;;;5111124;28;20100;-62
2023/03/21 06:59:53;;;;;;;16.58;10.68;;;9.40;99.90;;;;;;5111908;28;20051;-62
2023/03/21 07:02:20;;;;;;;22.10;12.60;;;9.40;99.90;;;;;;5111765;28;20104;-61
2023/03/21 07:04:49;;;;;;;18.85;10.95;;;9.40;99.90;;;;;;5111290;28;20507;-62
2023/03/21 07:07:15;;;;;;;17.45;11.38;;;9.40;99.90;;;;;;5109163;28;20558;-62
2023/03/21 07:09:42;;;;;;;16.48;10.13;;;9.50;99.90;;;;;;5111432;28;20051;-62
2023/03/21 07:12:10;;;;;;;16.40;10.80;;;9.50;99.90;;;;;;5112380;28;20050;-62
2023/03/21 07:14:36;;;;;;;16.05;10.07;;;9.50;99.90;;;;;;5111514;28;20142;-62
2023/03/21 07:17:03;;;;;;;16.42;10.35;;;9.50;99.90;;;;;;5111427;28;20055;-62
2023/03/21 07:19:30;;;;;;;17.10;11.10;;;9.50;99.90;;;;;;5110968;28;20074;-63
2023/03/21 07:21:59;;;;;;;15.20;10.07;;;9.50;99.90;;;;;;5112744;28;20055;-62
2023/03/21 07:24:26;;;;;;;14.85;10.20;;;9.50;99.90;;;;;;5108491;28;20051;-62
2023/03/21 07:26:53;;;;;;;15.65;10.32;;;9.50;99.90;;;;;;5110864;28;20039;-63
2023/03/21 07:29:22;;;;;;;16.35;10.48;;;9.50;99.90;;;;;;5112543;28;20039;-62
2023/03/21 07:31:49;;;;;;;16.55;10.95;;;9.60;99.90;;;;;;5112713;28;20392;-62
2023/03/21 07:34:17;;;;;;;13.77;9.52;;;9.60;99.90;;;;;;5110926;28;20093;-63
2023/03/21 07:36:44;;;;;;;14.93;9.40;;;9.60;99.90;;;;;;5112253;28;20149;-62
2023/03/21 07:39:12;;;;;;;14.02;8.82;;;9.60;99.90;;;;;;5110870;28;20047;-62
2023/03/21 07:41:39;;;;;;;14.50;9.30;;;9.70;99.90;;;;;;5111436;28;20055;-63
2023/03/21 07:44:06;;;;;;;13.07;8.25;;;9.70;99.90;;;;;;5111048;28;20054;-63
2023/03/21 07:46:33;;;;;;;12.40;8.05;;;9.70;99.90;;;;;;5110645;28;20060;-63
2023/03/21 07:49:00;;;;;;;11.98;8.43;;;9.70;99.90;;;;;;5110371;28;20092;-62
2023/03/21 07:51:27;;;;;;;12.23;8.00;;;9.70;99.90;;;;;;5111268;28;20047;-63
2023/03/21 07:53:54;;;;;;;10.95;7.65;;;9.70;99.90;;;;;;5108515;28;20051;-62
2023/03/21 07:56:22;;;;;;;12.00;7.78;;;9.70;99.90;;;;;;5110592;28;20055;-63
2023/03/21 07:58:49;;;;;;;9.38;6.88;;;9.70;99.90;;;;;;5112344;28;20043;-62
2023/03/21 08:01:16;;;;;;;10.40;7.03;;;9.70;99.90;;;;;;5110216;28;20059;-62
2023/03/21 08:03:43;;;;;;;9.55;6.97;;;9.70;99.90;;;;;;5112623;28;20044;-63
2023/03/21 08:06:10;;;;;;;8.85;5.95;;;9.80;99.90;;;;;;5111708;28;20392;-62
2023/03/21 08:08:37;;;;;;;7.97;6.00;;;9.80;99.90;;;;;;5110258;28;20051;-62
2023/03/21 08:11:05;;;;;;;8.07;6.18;;;9.70;99.90;;;;;;5111997;28;20564;-62
2023/03/21 08:13:33;;;;;;;8.60;5.93;;;9.80;99.90;;;;;;5111074;28;20055;-62
2023/03/21 08:16:00;;;;;;;7.93;6.22;;;9.80;99.90;;;;;;5108094;28;20047;-62
2023/03/21 08:18:27;;;;;;;9.63;6.63;;;9.80;99.90;;;;;;5112064;28;20088;-62
2023/03/21 08:20:55;;;;;;;7.93;5.65;;;9.80;99.90;;;;;;5111061;28;20097;-63
2023/03/21 08:23:23;;;;;;;8.20;6.05;;;9.80;99.90;;;;;;5110308;28;20055;-62
2023/03/21 08:25:52;;;;;;;8.70;6.45;;;9.90;99.90;;;;;;5111046;28;20051;-62
2023/03/21 08:28:19;;;;;;;8.18;5.90;;;9.80;99.90;;;;;;5110398;28;20491;-62
2023/03/21 08:30:48;;;;;;;7.78;6.13;;;9.90;99.90;;;;;;5110774;28;20134;-62
2023/03/21 08:33:16;;;;;;;8.55;6.25;;;9.80;99.90;;;;;;5112113;28;20510;-62
2023/03/21 08:35:43;;;;;;;7.45;5.72;;;9.80;99.90;;;;;;5113549;28;20568;-62
2023/03/21 08:38:10;;;;;;;8.13;5.95;;;9.80;99.90;;;;;;5114712;28;20062;-62
2023/03/21 08:40:38;;;;;;;8.60;5.50;;;9.80;99.90;;;;;;5113331;28;20043;-63
2023/03/21 08:43:04;;;;;;;8.55;5.72;;;9.80;99.90;;;;;;5114095;28;20051;-63
2023/03/21 08:45:32;;;;;;;8.20;5.68;;;9.80;99.90;;;;;;5115606;28;20048;-63
2023/03/21 08:48:00;;;;;;;7.68;5.70;;;9.80;99.90;;;;;;5114072;28;20104;-63
2023/03/21 08:50:30;;;;;;;6.97;5.40;;;9.80;99.90;;;;;;5113907;28;20048;-63
2023/03/21 08:52:57;;;;;;;6.78;5.50;;;9.80;99.90;;;;;;5115862;28;20480;-63
2023/03/21 08:55:24;;;;;;;7.10;4.93;;;9.70;99.90;;;;;;5115462;28;20395;-63
2023/03/21 08:57:51;;;;;;;6.78;5.50;;;9.70;99.90;;;;;;5113688;28;20579;-63
2023/03/21 09:00:20;;;;;;;6.10;4.53;;;9.80;99.90;;;;;;5115363;28;20043;-63
2023/03/21 09:02:50;;;;;;;6.47;4.78;;;9.70;99.90;;;;;;5115384;28;20118;-63
2023/03/21 09:05:19;;;;;;;6.90;5.60;;;9.70;99.90;;;;;;5112195;28;20448;-63
2023/03/21 09:07:46;;;;;;;7.85;5.65;;;9.70;99.90;;;;;;5114361;28;20398;-62
2023/03/21 09:10:15;;;;;;;9.63;6.28;;;9.80;99.90;;;;;;5111987;28;20043;-62
2023/03/21 09:12:42;;;;;;;8.65;6.15;;;9.80;99.90;;;;;;5113537;28;20060;-62
2023/03/21 09:15:11;;;;;;;9.98;6.50;;;9.80;99.90;;;;;;5114148;28;20080;-62
2023/03/21 09:17:42;;;;;;;11.63;7.65;;;9.80;99.90;;;;;;5112946;28;20048;-62
2023/03/21 09:20:17;;;;;;;9.38;6.82;;;9.80;99.90;;;;;;5113959;28;20102;-62
2023/03/21 09:22:46;;;;;;;12.35;7.82;;;9.80;99.90;;;;;;5115075;28;20050;-62
2023/03/21 09:25:14;;;;;;;13.93;8.38;;;9.70;99.90;;;;;;5113314;28;20062;-63
2023/03/21 09:27:44;;;;;;;13.45;8.27;;;9.80;99.90;;;;;;5114541;28;20487;-63
2023/03/21 09:30:12;;;;;;;12.38;8.63;;;9.80;99.90;;;;;;5115065;28;20082;-63
2023/03/21 09:32:40;;;;;;;12.20;9.32;;;9.80;99.90;;;;;;5113212;28;20055;-63
2023/03/21 09:35:10;;;;;;;13.93;9.00;;;9.70;99.90;;;;;;5113314;28;20548;-63
2023/03/21 09:37:41;;;;;;;14.95;10.93;;;9.80;99.90;;;;;;5114418;28;20044;-63
2023/03/21 09:40:18;;;;;;;17.42;10.98;;;9.80;99.90;;;;;;5111710;28;20043;-63
2023/03/21 09:42:57;;;;;;;17.63;10.10;;;9.80;99.90;;;;;;5112132;28;20054;-63
2023/03/21 09:45:34;;;;;;;14.75;10.23;;;9.90;99.90;;;;;;5114385;28;20054;-63
2023/03/21 09:48:02;;;;;;;16.20;9.70;;;9.80;99.90;;;;;;5113765;28;20058;-63
2023/03/21 09:50:32;;;;;;;16.80;10.10;;;9.80;99.90;;;;;;5114469;28;20131;-63
2023/03/21 09:53:02;;;;;;;17.27;11.13;;;9.70;99.90;;;;;;5113834;28;20506;-63
2023/03/21 09:55:33;;;;;;;13.82;10.23;;;9.70;99.90;;;;;;5114302;28;20054;-63
2023/03/21 09:58:06;;;;;;;17.85;11.98;;;9.70;99.90;;;;;;5112772;28;20563;-63
2023/03/21 10:00:38;;;;;;;20.10;12.15;;;9.70;99.90;;;;;;5112608;28;20047;-63
2023/03/21 10:03:16;;;;;;;19.27;13.25;;;9.70;99.90;;;;;;5113274;28;20129;-63
2023/03/21 10:05:44;;;;;;;17.77;13.05;;;9.80;99.90;;;;;;5112557;28;20058;-63
2023/03/21 10:08:16;;;;;;;19.40;12.65;;;9.70;99.90;;;;;;5113575;28;20047;-63
2023/03/21 10:10:49;;;;;;;24.65;14.48;;;9.70;99.90;;;;;;5114169;28;20044;-63
2023/03/21 10:13:22;;;;;;;22.17;14.65;;;9.70;99.90;;;;;;5112140;28;20048;-62
2023/03/21 10:15:49;;;;;;;22.90;13.70;;;9.70;99.90;;;;;;5111945;28;20051;-62
2023/03/21 10:18:22;;;;;;;21.95;13.75;;;9.60;99.90;;;;;;5113923;28;20438;-62
2023/03/21 10:20:51;;;;;;;20.95;12.68;;;9.70;99.90;;;;;;5112369;28;20048;-62
2023/03/21 10:23:21;;;;;;;21.83;13.00;;;9.60;99.90;;;;;;5112891;28;20051;-63
2023/03/21 10:25:52;;;;;;;21.98;13.63;;;9.60;99.90;;;;;;5112407;28;20052;-63
2023/03/21 10:28:22;;;;;;;25.10;14.90;;;9.60;99.90;;;;;;5111948;28;20520;-63
2023/03/21 10:30:52;;;;;;;21.47;13.53;;;9.60;99.90;;;;;;5112669;28;20043;-63
2023/03/21 10:33:22;;;;;;;19.65;13.88;;;9.70;99.90;;;;;;5113483;28;20326;-63
2023/03/21 10:35:52;;;;;;;19.30;12.38;;;9.70;99.90;;;;;;5112952;28;20052;-63
2023/03/21 10:38:21;;;;;;;21.52;12.80;;;9.70;99.90;;;;;;5112307;28;20471;-63
2023/03/21 10:40:50;;;;;;;18.63;12.77;;;9.80;99.90;;;;;;5113392;28;20039;-63
2023/03/21 10:43:29;;;;;;;19.38;12.05;;;9.90;99.90;;;;;;5112610;28;20043;-63
2023/03/21 10:45:57;;;;;;;20.85;11.75;;;9.90;99.90;;;;;;5112393;28;20053;-63
2023/03/21 10:48:24;;;;;;;18.02;12.43;;;10.00;99.90;;;;;;5111942;28;20526;-63
2023/03/21 10:50:55;;;;;;;17.33;11.40;;;10.10;99.90;;;;;;5111304;28;20563;-63
2023/03/21 10:53:26;;;;;;;20.10;12.63;;;10.10;99.90;;;;;;5111292;28;20048;-63
2023/03/21 10:55:59;;;;;;;21.00;12.25;;;10.20;99.90;;;;;;5112595;28;20051;-63
2023/03/21 10:58:28;;;;;;;18.58;11.70;;;10.20;99.90;;;;;;5112887;28;20043;-63
2023/03/21 11:00:57;;;;;;;18.55;12.25;;;10.30;99.90;;;;;;5113067;28;20461;-64
2023/03/21 11:03:30;;;;;;;21.23;13.13;;;10.40;99.90;;;;;;5112510;28;20051;-63
2023/03/21 11:06:02;;;;;;;19.02;13.07;;;10.50;99.90;;;;;;5111566;28;20051;-64
2023/03/21 11:08:29;;;;;;;20.45;12.57;;;10.70;99.90;;;;;;5111811;28;20083;-62
2023/03/21 11:11:04;;;;;;;18.33;11.82;;;10.90;99.90;;;;;;5111254;28;20051;-62
2023/03/21 11:13:37;;;;;;;18.02;10.93;;;11.00;99.90;;;;;;5112799;28;20046;-62
2023/03/21 11:16:08;;;;;;;17.35;9.75;;;11.10;99.90;;;;;;5111748;28;20113;-63
2023/03/21 11:18:41;;;;;;;15.00;9.98;;;11.20;99.90;;;;;;5110998;28;20126;-63
2023/03/21 11:21:11;;;;;;;13.98;9.20;;;11.30;99.90;;;;;;5111006;28;20105;-63
2023/03/21 11:23:43;;;;;;;13.07;9.00;;;11.40;99.90;;;;;;5111522;28;20449;-63
2023/03/21 11:26:19;;;;;;;15.48;9.25;;;11.50;99.90;;;;;;5111777;28;20556;-62
2023/03/21 11:28:46;;;;;;;14.63;8.98;;;11.60;99.90;;;;;;5112543;28;20104;-64
2023/03/21 11:31:13;;;;;;;15.38;9.02;;;11.70;99.90;;;;;;5111073;28;20044;-64
2023/03/21 11:33:44;;;;;;;11.65;8.35;;;11.80;99.90;;;;;;5112638;28;20047;-64
2023/03/21 11:36:30;;;;;;;12.73;8.10;;;11.90;99.90;;;;;;5112367;28;20112;-64
2023/03/21 11:39:00;;;;;;;15.40;7.65;;;11.90;99.90;;;;;;5110538;28;20108;-63
2023/03/21 11:41:31;;;;;;;13.18;8.70;;;11.80;99.90;;;;;;5111731;28;20052;-63
2023/03/21 11:44:00;;;;;;;13.48;8.40;;;11.70;99.90;;;;;;5112579;28;20130;-63
2023/03/21 11:46:28;;;;;;;13.20;8.20;;;11.70;99.90;;;;;;5111908;28;20040;-62
2023/03/21 11:48:57;;;;;;;10.63;7.10;;;11.70;99.90;;;;;;5111411;28;20400;-62
2023/03/21 11:51:32;;;;;;;14.68;8.18;;;11.70;99.90;;;;;;5111188;28;20054;-62
2023/03/21 11:54:07;;;;;;;12.60;7.88;;;11.80;99.90;;;;;;5111937;28;20043;-63
2023/03/21 11:56:40;;;;;;;13.10;8.10;;;11.80;99.90;;;;;;5111251;28;20043;-62
2023/03/21 11:59:28;;;;;;;10.55;7.93;;;11.80;99.90;;;;;;5112528;28;20052;-63
2023/03/21 12:02:04;;;;;;;14.82;7.80;;;11.90;99.90;;;;;;5109616;28;20048;-62
2023/03/21 12:04:41;;;;;;;11.73;8.05;;;11.90;99.90;;;;;;5109552;28;20048;-62
2023/03/21 12:07:25;;;;;;;14.98;7.75;;;11.90;99.90;;;;;;5110189;28;20584;-62
2023/03/21 12:10:00;;;;;;;13.90;7.97;;;11.80;99.90;;;;;;5113390;28;20092;-62
2023/03/21 12:12:38;;;;;;;11.27;8.45;;;11.70;99.90;;;;;;5116212;28;20126;-63
2023/03/21 12:15:13;;;;;;;13.73;7.60;;;11.70;99.90;;;;;;5115924;28;20051;-62
2023/03/21 12:17:48;;;;;;;13.60;7.82;;;11.70;99.90;;;;;;5112583;28;20495;-63
2023/03/21 12:20:24;;;;;;;9.23;7.15;;;11.60;99.90;;;;;;5115410;28;20055;-62
2023/03/21 12:23:04;;;;;;;14.30;7.43;;;11.60;99.90;;;;;;5114330;28;20056;-62
2023/03/21 12:25:35;;;;;;;12.73;7.68;;;11.50;99.90;;;;;;5114074;28;20529;-62
2023/03/21 12:28:06;;;;;;;;;;;11.50;99.90;;;;;;5116053;28;20036;-62
2023/03/21 12:30:44;;;;;;;12.07;7.82;;;11.40;99.90;;;;;;5116309;28;19973;-62
2023/03/21 12:33:39;;;;;;;11.30;7.15;;;11.30;99.90;;;;;;5116049;28;20051;-62
2023/03/21 12:36:32;;;;;;;10.93;7.43;;;11.30;99.90;;;;;;5112333;28;20130;-63
2023/03/21 12:39:10;;;;;;;11.43;7.13;;;11.30;99.90;;;;;;5110585;28;20048;-62
2023/03/21 12:41:43;;;;;;;13.70;8.52;;;11.30;99.90;;;;;;5114250;28;20055;-62
2023/03/21 12:44:15;;;;;;;12.45;8.00;;;11.30;99.90;;;;;;5114993;28;20484;-63
2023/03/21 12:46:46;;;;;;;11.15;7.18;;;11.30;99.90;;;;;;5115855;28;20079;-62
2023/03/21 12:49:16;;;;;;;11.82;7.60;;;11.30;99.90;;;;;;5113801;28;20044;-62
2023/03/21 12:51:46;;;;;;;18.03;8.50;;;11.30;99.90;;;;;;5114445;28;20096;-62
2023/03/21 12:54:23;;;;;;;12.85;7.75;;;11.30;99.90;;;;;;5115521;28;20050;-63
2023/03/21 12:56:56;;;;;;;13.90;7.78;;;11.50;99.90;;;;;;5114787;28;20044;-63